createdAt,value
2023-06-03T00:00:06.047Z,13.90
2023-06-03T00:01:41.682Z,13.90
2023-06-03T00:03:14.558Z,13.90
2023-06-03T00:04:47.587Z,13.90
2023-06-03T00:06:19.525Z,13.80
2023-06-03T00:07:52.376Z,13.80
2023-06-03T00:09:24.300Z,13.70
2023-06-03T00:10:57.157Z,13.70
2023-06-03T00:12:28.978Z,13.70
2023-06-03T00:14:01.730Z,13.60
2023-06-03T00:15:34.845Z,13.60
2023-06-03T00:17:07.670Z,13.60
2023-06-03T00:18:40.429Z,13.50
2023-06-03T00:20:13.204Z,13.50
2023-06-03T00:21:47.416Z,13.40
2023-06-03T00:23:20.211Z,13.50
2023-06-03T00:24:53.026Z,13.40
2023-06-03T00:26:26.800Z,13.40
2023-06-03T00:27:59.611Z,13.40
2023-06-03T00:29:31.435Z,13.40
2023-06-03T00:31:05.795Z,13.40
2023-06-03T00:32:38.652Z,13.30
2023-06-03T00:34:12.022Z,13.30
2023-06-03T00:35:44.819Z,13.30
2023-06-03T00:37:16.600Z,13.30
2023-06-03T00:38:49.370Z,13.30
2023-06-03T00:40:22.323Z,13.30
2023-06-03T00:41:55.065Z,13.20
2023-06-03T00:43:27.813Z,13.30
2023-06-03T00:45:00.643Z,13.20
2023-06-03T00:46:36.596Z,13.20
2023-06-03T00:48:09.518Z,13.10
2023-06-03T00:49:42.529Z,13.20
2023-06-03T00:51:17.349Z,13.10
2023-06-03T00:52:51.291Z,13.10
2023-06-03T00:54:23.518Z,13.10
2023-06-03T00:56:00.126Z,13.10
2023-06-03T00:57:33.210Z,13.10
2023-06-03T00:59:05.236Z,13.20
2023-06-03T01:00:37.962Z,13.20
2023-06-03T01:02:13.754Z,13.20
2023-06-03T01:03:48.501Z,13.20
2023-06-03T01:05:21.385Z,13.10
2023-06-03T01:07:06.882Z,13.10
2023-06-03T01:08:49.144Z,13.10
2023-06-03T01:10:25.915Z,13.10
2023-06-03T01:12:09.421Z,13.10
2023-06-03T01:13:48.695Z,13.10
2023-06-03T01:15:24.327Z,13.10
2023-06-03T01:16:58.629Z,13.10
2023-06-03T01:18:33.513Z,13.10
2023-06-03T01:20:08.774Z,13.10
2023-06-03T01:21:42.803Z,13.10
2023-06-03T01:23:22.615Z,13.10
2023-06-03T01:25:04.116Z,13.10
2023-06-03T01:26:37.560Z,13.00
2023-06-03T01:28:10.476Z,13.10
2023-06-03T01:29:44.230Z,13.00
2023-06-03T01:31:18.065Z,13.10
2023-06-03T01:32:51.393Z,13.10
2023-06-03T01:34:24.178Z,13.00
2023-06-03T01:35:59.379Z,13.00
2023-06-03T01:37:32.611Z,13.00
2023-06-03T01:39:06.986Z,12.90
2023-06-03T01:40:40.511Z,13.00
2023-06-03T01:42:13.862Z,12.90
2023-06-03T01:43:45.800Z,12.90
2023-06-03T01:45:18.651Z,12.90
2023-06-03T01:46:51.533Z,12.90
2023-06-03T01:48:24.381Z,12.90
2023-06-03T01:49:56.285Z,12.90
2023-06-03T01:51:29.063Z,12.90
2023-06-03T01:53:01.842Z,12.90
2023-06-03T01:54:34.968Z,12.90
2023-06-03T01:56:08.418Z,12.80
2023-06-03T01:57:41.185Z,12.80
2023-06-03T01:59:14.508Z,12.80
2023-06-03T02:00:46.358Z,12.80
2023-06-03T02:02:19.220Z,12.80
2023-06-03T02:03:51.054Z,12.70
2023-06-03T02:05:23.946Z,12.70
2023-06-03T02:06:57.522Z,12.70
2023-06-03T02:08:31.318Z,12.70
2023-06-03T02:10:06.113Z,12.70
2023-06-03T02:11:37.886Z,12.60
2023-06-03T02:13:10.601Z,12.70
2023-06-03T02:14:42.394Z,12.60
2023-06-03T02:16:15.234Z,12.60
2023-06-03T02:17:49.752Z,12.60
2023-06-03T02:19:24.498Z,12.60
2023-06-03T02:20:57.245Z,12.60
2023-06-03T02:22:30.035Z,12.60
2023-06-03T02:24:03.406Z,12.60
2023-06-03T02:25:37.658Z,12.70
2023-06-03T02:27:10.397Z,12.60
2023-06-03T02:28:42.162Z,12.60
2023-06-03T02:30:15.159Z,12.70
2023-06-03T02:31:48.209Z,12.70
2023-06-03T02:33:20.997Z,12.70
2023-06-03T02:34:53.126Z,12.70
2023-06-03T02:36:25.910Z,12.70
2023-06-03T02:37:58.856Z,12.70
2023-06-03T02:39:31.678Z,12.70
2023-06-03T02:41:05.952Z,12.80
2023-06-03T02:42:39.715Z,12.80
2023-06-03T02:44:11.975Z,12.80
2023-06-03T02:45:44.742Z,12.80
2023-06-03T02:47:17.488Z,12.80
2023-06-03T02:48:49.292Z,12.80
2023-06-03T02:50:22.159Z,12.80
2023-06-03T02:51:56.432Z,12.80
2023-06-03T02:53:29.321Z,12.80
2023-06-03T02:55:02.365Z,12.80
2023-06-03T02:56:37.044Z,12.80
2023-06-03T02:58:09.953Z,12.80
2023-06-03T02:59:41.944Z,12.80
2023-06-03T03:01:14.675Z,12.80
2023-06-03T03:02:47.578Z,12.80
2023-06-03T03:04:21.695Z,12.80
2023-06-03T03:05:55.953Z,12.80
2023-06-03T03:07:28.755Z,12.70
2023-06-03T03:09:01.544Z,12.70
2023-06-03T03:10:34.335Z,12.80
2023-06-03T03:12:09.794Z,12.70
2023-06-03T03:13:43.036Z,12.70
2023-06-03T03:15:15.918Z,12.70
2023-06-03T03:16:48.677Z,12.70
2023-06-03T03:18:21.515Z,12.60
2023-06-03T03:19:54.348Z,12.60
2023-06-03T03:21:27.198Z,12.60
2023-06-03T03:23:01.106Z,12.60
2023-06-03T03:24:33.862Z,12.60
2023-06-03T03:26:08.892Z,12.60
2023-06-03T03:27:43.055Z,12.60
2023-06-03T03:29:14.855Z,12.60
2023-06-03T03:30:50.241Z,12.60
2023-06-03T03:32:23.068Z,12.60
2023-06-03T03:33:54.954Z,12.50
2023-06-03T03:35:28.388Z,12.50
2023-06-03T03:37:01.360Z,12.50
2023-06-03T03:38:34.150Z,12.50
2023-06-03T03:40:14.256Z,12.40
2023-06-03T03:41:46.992Z,12.40
2023-06-03T03:43:21.592Z,12.40
2023-06-03T03:44:54.323Z,12.40
2023-06-03T03:46:27.254Z,12.40
2023-06-03T03:48:03.038Z,12.40
2023-06-03T03:49:36.735Z,12.30
2023-06-03T03:51:10.088Z,12.30
2023-06-03T03:52:42.382Z,12.30
2023-06-03T03:54:15.588Z,12.30
2023-06-03T03:55:49.992Z,12.30
2023-06-03T03:57:25.295Z,12.30
2023-06-03T03:58:59.433Z,12.30
2023-06-03T04:00:34.221Z,12.20
2023-06-03T04:02:07.549Z,12.20
2023-06-03T04:03:41.431Z,12.20
2023-06-03T04:05:17.058Z,12.20
2023-06-03T04:06:49.828Z,12.20
2023-06-03T04:08:40.883Z,12.20
2023-06-03T04:10:14.283Z,12.30
2023-06-03T04:11:48.140Z,12.30
2023-06-03T04:13:21.007Z,12.30
2023-06-03T04:14:58.321Z,12.30
2023-06-03T04:16:52.721Z,12.30
2023-06-03T04:18:24.636Z,12.30
2023-06-03T04:19:57.533Z,12.30
2023-06-03T04:21:29.501Z,12.40
2023-06-03T04:23:05.591Z,12.40
2023-06-03T04:24:43.147Z,12.30
2023-06-03T04:26:17.381Z,12.40
2023-06-03T04:27:50.160Z,12.40
2023-06-03T04:29:23.833Z,12.40
2023-06-03T04:30:57.915Z,12.40
2023-06-03T04:32:31.282Z,12.40
2023-06-03T04:34:04.817Z,12.40
2023-06-03T04:35:37.618Z,12.40
2023-06-03T04:37:10.340Z,12.50
2023-06-03T04:38:44.451Z,12.50
2023-06-03T04:40:16.495Z,12.50
2023-06-03T04:41:49.243Z,12.50
2023-06-03T04:43:23.305Z,12.60
2023-06-03T04:44:59.287Z,12.60
2023-06-03T04:46:34.480Z,12.60
2023-06-03T04:48:08.644Z,12.60
2023-06-03T04:49:40.722Z,12.70
2023-06-03T04:51:14.123Z,12.70
2023-06-03T04:52:45.922Z,12.70
2023-06-03T04:54:24.595Z,12.70
2023-06-03T04:55:57.315Z,12.80
2023-06-03T04:57:30.106Z,12.80
2023-06-03T04:59:04.995Z,12.80
2023-06-03T05:00:38.599Z,12.80
2023-06-03T05:02:14.462Z,12.90
2023-06-03T05:03:47.314Z,12.90
2023-06-03T05:05:20.024Z,12.90
2023-06-03T05:06:52.760Z,12.90
2023-06-03T05:08:25.632Z,13.00
2023-06-03T05:09:58.594Z,13.00
2023-06-03T05:11:31.317Z,13.00
2023-06-03T05:13:03.606Z,13.10
2023-06-03T05:14:36.464Z,13.10
2023-06-03T05:16:09.500Z,13.10
2023-06-03T05:17:43.700Z,13.10
2023-06-03T05:19:16.439Z,13.20
2023-06-03T05:20:49.154Z,13.20
2023-06-03T05:22:21.885Z,13.30
2023-06-03T05:23:54.754Z,13.30
2023-06-03T05:25:27.526Z,13.40
2023-06-03T05:27:00.292Z,13.40
2023-06-03T05:28:33.082Z,13.50
2023-06-03T05:30:05.803Z,13.50
2023-06-03T05:31:38.590Z,13.50
2023-06-03T05:33:25.535Z,13.60
2023-06-03T05:34:58.274Z,13.70
2023-06-03T05:36:31.111Z,13.70
2023-06-03T05:38:03.831Z,13.80
2023-06-03T05:39:36.774Z,13.80
2023-06-03T05:41:09.547Z,13.90
2023-06-03T05:42:42.833Z,13.90
2023-06-03T05:44:15.730Z,14.00
2023-06-03T05:45:48.942Z,14.00
2023-06-03T05:47:21.793Z,14.00
2023-06-03T05:48:55.861Z,14.10
2023-06-03T05:50:28.592Z,14.10
2023-06-03T05:52:01.311Z,14.20
2023-06-03T05:53:34.069Z,14.20
2023-06-03T05:55:08.003Z,14.30
2023-06-03T05:56:40.990Z,14.40
2023-06-03T05:58:13.784Z,14.40
2023-06-03T05:59:47.654Z,14.50
2023-06-03T06:01:20.427Z,14.50
2023-06-03T06:02:53.289Z,14.50
2023-06-03T06:04:27.587Z,14.60
2023-06-03T06:06:02.118Z,14.60
2023-06-03T06:07:34.901Z,14.60
2023-06-03T06:09:07.661Z,14.70
2023-06-03T06:10:40.484Z,14.70
2023-06-03T06:12:13.329Z,14.80
2023-06-03T06:13:45.216Z,14.80
2023-06-03T06:15:18.284Z,14.80
2023-06-03T06:16:52.893Z,14.90
2023-06-03T06:18:24.867Z,14.80
2023-06-03T06:20:00.872Z,14.90
2023-06-03T06:21:33.802Z,14.90
2023-06-03T06:23:06.598Z,15.00
2023-06-03T06:24:39.442Z,15.10
2023-06-03T06:26:14.293Z,15.20
2023-06-03T06:27:47.294Z,15.20
2023-06-03T06:29:20.077Z,15.40
2023-06-03T06:30:54.164Z,15.50
2023-06-03T06:32:28.532Z,15.60
2023-06-03T06:34:01.748Z,15.70
2023-06-03T06:35:37.380Z,15.70
2023-06-03T06:37:11.014Z,15.80
2023-06-03T06:38:43.789Z,15.90
2023-06-03T06:40:20.160Z,16.10
2023-06-03T06:41:52.934Z,16.30
2023-06-03T06:43:27.716Z,16.50
2023-06-03T06:45:05.713Z,16.70
2023-06-03T06:46:39.379Z,16.70
2023-06-03T06:48:14.119Z,17.00
2023-06-03T06:49:46.958Z,17.10
2023-06-03T06:51:21.187Z,17.30
2023-06-03T06:52:52.978Z,17.40
2023-06-03T06:54:25.922Z,17.60
2023-06-03T06:56:01.144Z,17.70
2023-06-03T06:57:36.160Z,17.90
2023-06-03T06:59:08.890Z,18.00
2023-06-03T07:00:41.067Z,18.20
2023-06-03T07:02:13.986Z,18.30
2023-06-03T07:03:46.742Z,18.40
2023-06-03T07:05:19.518Z,18.40
2023-06-03T07:06:54.062Z,18.50
2023-06-03T07:08:27.280Z,18.50
2023-06-03T07:10:00.049Z,18.60
2023-06-03T07:11:38.592Z,18.60
2023-06-03T07:13:11.392Z,18.70
2023-06-03T07:14:44.197Z,18.70
2023-06-03T07:16:17.604Z,18.80
2023-06-03T07:17:51.066Z,18.90
2023-06-03T07:19:24.094Z,18.90
2023-06-03T07:20:57.089Z,18.90
2023-06-03T07:22:31.635Z,18.90
2023-06-03T07:24:05.095Z,18.90
2023-06-03T07:25:40.458Z,19.00
2023-06-03T07:27:24.205Z,18.90
2023-06-03T07:28:57.949Z,19.10
2023-06-03T07:30:30.703Z,19.30
2023-06-03T07:32:03.813Z,19.40
2023-06-03T07:33:39.139Z,19.50
2023-06-03T07:35:13.218Z,19.50
2023-06-03T07:36:46.024Z,19.60
2023-06-03T07:39:05.242Z,19.60
2023-06-03T07:40:42.048Z,19.60
2023-06-03T07:42:21.097Z,19.70
2023-06-03T07:43:53.913Z,19.70
2023-06-03T07:45:28.452Z,19.70
2023-06-03T07:47:01.181Z,19.60
2023-06-03T07:48:35.046Z,19.60
2023-06-03T07:50:22.823Z,19.60
2023-06-03T07:51:55.826Z,19.70
2023-06-03T07:53:33.608Z,19.70
2023-06-03T07:55:09.066Z,19.70
2023-06-03T07:56:42.330Z,19.90
2023-06-03T07:58:16.887Z,20.00
2023-06-03T07:59:53.856Z,20.10
2023-06-03T08:01:26.968Z,20.10
2023-06-03T08:02:59.870Z,20.10
2023-06-03T08:04:35.033Z,20.20
2023-06-03T08:06:09.272Z,20.20
2023-06-03T08:07:44.948Z,20.20
2023-06-03T08:09:25.454Z,20.30
2023-06-03T08:10:58.325Z,20.50
2023-06-03T08:12:35.362Z,20.70
2023-06-03T08:14:08.167Z,20.70
2023-06-03T08:15:41.501Z,20.80
2023-06-03T08:17:17.192Z,20.80
2023-06-03T08:18:51.664Z,20.90
2023-06-03T08:20:25.616Z,21.00
2023-06-03T08:21:59.238Z,21.10
2023-06-03T08:23:33.700Z,21.20
2023-06-03T08:25:08.860Z,21.40
2023-06-03T08:26:41.802Z,21.60
2023-06-03T08:28:14.670Z,21.70
2023-06-03T08:29:46.531Z,21.80
2023-06-03T08:31:19.279Z,21.90
2023-06-03T08:32:52.755Z,21.80
2023-06-03T08:34:25.635Z,21.90
2023-06-03T08:35:58.818Z,21.90
2023-06-03T08:37:32.687Z,21.90
2023-06-03T08:39:08.040Z,21.80
2023-06-03T08:40:47.405Z,21.70
2023-06-03T08:42:24.801Z,21.60
2023-06-03T08:44:09.102Z,21.30
2023-06-03T08:45:54.717Z,21.20
2023-06-03T08:47:35.641Z,21.00
2023-06-03T08:49:13.403Z,20.80
2023-06-03T08:50:51.082Z,20.80
2023-06-03T08:52:27.653Z,20.80
2023-06-03T08:54:00.373Z,20.80
2023-06-03T08:55:34.129Z,21.00
2023-06-03T08:57:12.855Z,21.10
2023-06-03T08:58:49.526Z,21.20
2023-06-03T09:00:24.731Z,21.20
2023-06-03T09:01:58.954Z,21.20
2023-06-03T09:03:33.289Z,21.30
2023-06-03T09:05:07.474Z,21.20
2023-06-03T09:06:44.375Z,21.20
2023-06-03T09:08:18.528Z,21.10
2023-06-03T09:09:52.884Z,21.20
2023-06-03T09:11:26.731Z,21.20
2023-06-03T09:13:03.183Z,21.30
2023-06-03T09:14:36.497Z,21.30
2023-06-03T09:16:10.332Z,21.30
2023-06-03T09:17:43.861Z,21.30
2023-06-03T09:19:16.810Z,21.20
2023-06-03T09:20:49.560Z,21.20
2023-06-03T09:22:23.947Z,21.20
2023-06-03T09:23:56.882Z,21.20
2023-06-03T09:25:29.696Z,21.30
2023-06-03T09:27:02.938Z,21.40
2023-06-03T09:28:37.037Z,21.40
2023-06-03T09:30:10.899Z,21.50
2023-06-03T09:31:43.702Z,21.70
2023-06-03T09:33:17.403Z,21.90
2023-06-03T09:34:50.300Z,22.10
2023-06-03T09:38:02.724Z,22.30
2023-06-03T09:39:36.661Z,22.20
2023-06-03T09:41:16.046Z,22.30
2023-06-03T09:42:48.862Z,22.30
2023-06-03T09:44:22.994Z,22.30
2023-06-03T09:45:55.926Z,22.30
2023-06-03T09:47:37.061Z,22.40
2023-06-03T09:49:10.883Z,22.40
2023-06-03T09:50:50.984Z,22.30
2023-06-03T09:52:33.363Z,22.30
2023-06-03T09:54:12.268Z,22.10
2023-06-03T09:55:45.050Z,22.10
2023-06-03T09:57:17.818Z,22.10
2023-06-03T09:58:52.528Z,22.20
2023-06-03T10:00:26.669Z,22.20
2023-06-03T10:01:59.471Z,22.30
2023-06-03T10:03:32.320Z,22.40
2023-06-03T10:05:05.428Z,22.50
2023-06-03T10:06:39.381Z,22.60
2023-06-03T10:08:12.176Z,22.70
2023-06-03T10:09:48.096Z,22.70
2023-06-03T10:11:19.939Z,22.70
2023-06-03T10:12:52.875Z,22.70
2023-06-03T10:14:27.391Z,22.70
2023-06-03T10:16:03.385Z,22.60
2023-06-03T10:17:37.484Z,22.60
2023-06-03T10:19:10.324Z,22.60
2023-06-03T10:20:43.995Z,22.50
2023-06-03T10:22:19.220Z,22.50
2023-06-03T10:23:55.017Z,22.50
2023-06-03T10:25:28.734Z,22.60
2023-06-03T10:27:01.987Z,22.60
2023-06-03T10:28:35.233Z,22.60
2023-06-03T10:30:09.547Z,22.60
2023-06-03T10:31:44.654Z,22.60
2023-06-03T10:33:19.884Z,22.60
2023-06-03T10:34:53.787Z,22.60
2023-06-03T10:36:28.099Z,22.60
2023-06-03T10:38:01.898Z,22.60
2023-06-03T10:39:35.156Z,22.60
2023-06-03T10:41:08.829Z,22.60
2023-06-03T10:42:42.840Z,22.60
2023-06-03T10:44:14.696Z,22.60
2023-06-03T10:45:47.721Z,22.50
2023-06-03T10:47:27.413Z,22.50
2023-06-03T10:49:00.936Z,22.50
2023-06-03T10:50:45.130Z,22.50
2023-06-03T10:52:38.350Z,22.60
2023-06-03T10:54:25.613Z,22.60
2023-06-03T10:56:07.778Z,22.70
2023-06-03T10:57:46.675Z,22.60
2023-06-03T10:59:22.801Z,22.50
2023-06-03T11:00:57.357Z,22.40
2023-06-03T11:03:07.877Z,22.50
2023-06-03T11:04:41.600Z,22.60
2023-06-03T11:06:42.193Z,22.70
2023-06-03T11:08:15.043Z,22.80
2023-06-03T11:09:47.846Z,22.90
2023-06-03T11:11:56.954Z,23.00
2023-06-03T11:13:43.572Z,23.00
2023-06-03T11:15:16.601Z,23.10
2023-06-03T11:17:11.033Z,23.20
2023-06-03T11:18:45.350Z,23.30
2023-06-03T11:20:38.618Z,23.40
2023-06-03T11:22:12.302Z,23.40
2023-06-03T11:23:46.360Z,23.40
2023-06-03T11:25:32.619Z,23.50
2023-06-03T11:27:23.187Z,23.40
2023-06-03T11:28:55.950Z,23.30
2023-06-03T11:30:55.004Z,23.30
2023-06-03T11:32:29.448Z,23.40
2023-06-03T11:34:27.807Z,23.50
2023-06-03T11:36:00.701Z,23.50
2023-06-03T11:37:54.703Z,23.50
2023-06-03T11:39:27.633Z,23.60
2023-06-03T11:41:00.372Z,23.60
2023-06-03T11:42:33.494Z,23.70
2023-06-03T11:44:29.366Z,23.70
2023-06-03T11:46:07.830Z,23.70
2023-06-03T11:47:49.701Z,23.80
2023-06-03T11:49:22.954Z,23.80
2023-06-03T11:50:58.447Z,23.80
2023-06-03T11:52:38.129Z,23.80
2023-06-03T11:54:13.423Z,23.80
2023-06-03T11:55:46.193Z,23.80
2023-06-03T11:57:19.871Z,23.80
2023-06-03T11:58:53.802Z,23.90
2023-06-03T12:00:26.576Z,23.80
2023-06-03T12:01:58.932Z,23.80
2023-06-03T12:03:31.778Z,23.70
2023-06-03T12:05:06.344Z,23.70
2023-06-03T12:06:40.704Z,23.70
2023-06-03T12:08:13.462Z,23.70
2023-06-03T12:09:46.801Z,23.70
2023-06-03T12:11:27.092Z,23.70
2023-06-03T12:13:00.417Z,23.70
2023-06-03T12:14:34.913Z,23.80
2023-06-03T12:16:07.957Z,23.80
2023-06-03T12:17:40.945Z,23.80
2023-06-03T12:19:12.754Z,23.80
2023-06-03T12:20:49.015Z,23.90
2023-06-03T12:22:28.730Z,23.90
2023-06-03T12:24:00.881Z,23.90
2023-06-03T12:25:35.640Z,24.00
2023-06-03T12:27:18.719Z,23.90
2023-06-03T12:28:51.481Z,23.90
2023-06-03T12:30:31.104Z,23.80
2023-06-03T12:32:04.289Z,23.90
2023-06-03T12:33:41.770Z,23.80
2023-06-03T12:35:15.295Z,23.80
2023-06-03T12:36:49.110Z,23.80
2023-06-03T12:38:24.693Z,23.80
2023-06-03T12:39:59.103Z,23.80
2023-06-03T12:41:31.065Z,23.90
2023-06-03T12:43:05.444Z,23.90
2023-06-03T12:44:49.630Z,23.90
2023-06-03T12:46:22.422Z,24.00
2023-06-03T12:47:56.682Z,24.00
2023-06-03T12:49:28.624Z,24.00
2023-06-03T12:51:01.646Z,24.00
2023-06-03T12:52:37.166Z,24.00
2023-06-03T12:54:11.639Z,23.90
2023-06-03T12:55:44.384Z,23.90
2023-06-03T12:57:17.628Z,23.90
2023-06-03T12:58:50.362Z,23.90
2023-06-03T13:00:23.482Z,23.90
2023-06-03T13:01:56.285Z,24.00
2023-06-03T13:03:29.034Z,24.00
2023-06-03T13:05:02.299Z,24.00
2023-06-03T13:06:35.088Z,23.90
2023-06-03T13:08:11.039Z,23.90
2023-06-03T13:09:45.185Z,23.90
2023-06-03T13:11:17.952Z,23.90
2023-06-03T13:12:51.033Z,23.90
2023-06-03T13:14:23.916Z,24.00
2023-06-03T13:15:56.694Z,24.10
2023-06-03T13:17:29.781Z,24.20
2023-06-03T13:19:03.685Z,24.20
2023-06-03T13:20:36.470Z,24.10
2023-06-03T13:22:09.784Z,24.00
2023-06-03T13:23:42.655Z,23.90
2023-06-03T13:25:16.781Z,23.80
2023-06-03T13:26:49.908Z,23.70
2023-06-03T13:28:22.656Z,23.80
2023-06-03T13:29:55.438Z,23.80
2023-06-03T13:31:28.233Z,23.80
2023-06-03T13:33:01.702Z,23.70
2023-06-03T13:34:35.374Z,23.70
2023-06-03T13:36:08.339Z,23.70
2023-06-03T13:37:41.197Z,23.60
2023-06-03T13:39:14.813Z,23.70
2023-06-03T13:40:49.126Z,23.70
2023-06-03T13:42:22.015Z,23.80
2023-06-03T13:43:54.818Z,23.80
2023-06-03T13:45:27.585Z,23.90
2023-06-03T13:47:01.634Z,23.90
2023-06-03T13:48:34.541Z,23.80
2023-06-03T13:50:08.854Z,23.90
2023-06-03T13:51:40.780Z,23.90
2023-06-03T13:53:14.043Z,24.00
2023-06-03T13:54:46.842Z,24.00
2023-06-03T13:56:22.155Z,24.10
2023-06-03T13:57:54.904Z,24.10
2023-06-03T13:59:27.936Z,24.10
2023-06-03T14:01:00.717Z,24.00
2023-06-03T14:02:33.571Z,24.00
2023-06-03T14:04:06.486Z,24.00
2023-06-03T14:05:39.320Z,24.00
2023-06-03T14:07:12.152Z,24.00
2023-06-03T14:08:45.059Z,24.00
2023-06-03T14:10:18.050Z,24.00
2023-06-03T14:11:52.189Z,24.00
2023-06-03T14:13:24.910Z,24.00
2023-06-03T14:14:57.641Z,23.90
2023-06-03T14:16:30.909Z,23.90
2023-06-03T14:18:03.857Z,24.00
2023-06-03T14:19:36.675Z,24.00
2023-06-03T14:21:09.731Z,24.10
2023-06-03T14:22:42.507Z,24.10
2023-06-03T14:24:15.303Z,24.20
2023-06-03T14:25:48.093Z,24.20
2023-06-03T14:27:22.188Z,24.20
2023-06-03T14:28:54.937Z,24.20
2023-06-03T14:30:40.604Z,24.20
2023-06-03T14:32:20.880Z,24.20
2023-06-03T14:33:53.972Z,24.10
2023-06-03T14:35:26.727Z,24.20
2023-06-03T14:36:59.466Z,24.20
2023-06-03T14:38:35.426Z,24.20
2023-06-03T14:40:09.017Z,24.20
2023-06-03T14:41:43.662Z,24.20
2023-06-03T14:43:18.113Z,24.20
2023-06-03T14:45:00.709Z,24.20
2023-06-03T14:46:34.377Z,24.30
2023-06-03T14:48:07.167Z,24.30
2023-06-03T14:49:40.016Z,24.30
2023-06-03T14:51:12.863Z,24.30
2023-06-03T14:52:45.743Z,24.30
2023-06-03T14:54:18.600Z,24.30
2023-06-03T14:55:51.366Z,24.30
2023-06-03T14:57:24.276Z,24.30
2023-06-03T14:58:58.863Z,24.20
2023-06-03T15:00:31.654Z,24.20
2023-06-03T15:02:04.449Z,24.20
2023-06-03T15:03:37.240Z,24.20
2023-06-03T15:05:10.081Z,24.20
2023-06-03T15:06:43.055Z,24.10
2023-06-03T15:08:15.904Z,24.10
2023-06-03T15:09:48.653Z,24.10
2023-06-03T15:11:21.589Z,24.10
2023-06-03T15:12:54.503Z,24.10
2023-06-03T15:14:28.593Z,24.10
2023-06-03T15:16:01.377Z,24.10
2023-06-03T15:17:34.192Z,24.20
2023-06-03T15:19:07.279Z,24.20
2023-06-03T15:20:41.378Z,24.20
2023-06-03T15:22:14.233Z,24.20
2023-06-03T15:23:47.352Z,24.20
2023-06-03T15:25:20.406Z,24.20
2023-06-03T15:26:53.142Z,24.10
2023-06-03T15:28:25.922Z,24.10
2023-06-03T15:30:00.201Z,24.10
2023-06-03T15:31:33.217Z,24.10
2023-06-03T15:33:07.014Z,24.00
2023-06-03T15:34:39.797Z,24.00
2023-06-03T15:36:12.688Z,24.00
2023-06-03T15:37:45.955Z,24.10
2023-06-03T15:39:17.815Z,24.10
2023-06-03T15:40:50.608Z,24.10
2023-06-03T15:42:23.471Z,24.10
2023-06-03T15:43:56.376Z,24.20
2023-06-03T15:45:30.452Z,24.20
2023-06-03T15:47:04.871Z,24.10
2023-06-03T15:48:37.909Z,24.20
2023-06-03T15:50:10.933Z,24.20
2023-06-03T15:51:45.224Z,24.20
2023-06-03T15:53:19.217Z,24.10
2023-06-03T15:54:51.967Z,24.10
2023-06-03T15:56:24.736Z,24.10
2023-06-03T15:57:57.513Z,24.10
2023-06-03T15:59:30.456Z,24.10
2023-06-03T16:01:04.646Z,24.10
2023-06-03T16:02:37.471Z,24.10
2023-06-03T16:04:10.377Z,24.00
2023-06-03T16:05:43.180Z,24.00
2023-06-03T16:07:16.025Z,24.00
2023-06-03T16:08:48.817Z,24.00
2023-06-03T16:10:21.566Z,24.00
2023-06-03T16:11:54.382Z,24.10
2023-06-03T16:13:27.300Z,24.10
2023-06-03T16:15:00.109Z,24.10
2023-06-03T16:16:34.326Z,24.10
2023-06-03T16:18:07.332Z,24.10
2023-06-03T16:19:42.447Z,24.10
2023-06-03T16:21:15.548Z,24.10
2023-06-03T16:22:48.416Z,24.10
2023-06-03T16:24:21.603Z,24.10
2023-06-03T16:25:54.352Z,24.10
2023-06-03T16:27:27.243Z,24.10
2023-06-03T16:29:00.001Z,24.10
2023-06-03T16:30:33.028Z,24.10
2023-06-03T16:32:07.807Z,24.00
2023-06-03T16:33:40.647Z,24.00
2023-06-03T16:35:13.406Z,24.00
2023-06-03T16:36:46.141Z,24.00
2023-06-03T16:38:18.928Z,23.90
2023-06-03T16:39:54.569Z,23.90
2023-06-03T16:41:28.896Z,23.90
2023-06-03T16:43:01.700Z,24.00
2023-06-03T16:44:34.479Z,23.90
2023-06-03T16:46:07.351Z,23.90
2023-06-03T16:47:41.935Z,23.80
2023-06-03T16:49:15.984Z,23.80
2023-06-03T16:50:48.796Z,23.80
2023-06-03T16:52:23.656Z,23.80
2023-06-03T16:53:56.707Z,23.80
2023-06-03T16:55:29.477Z,23.70
2023-06-03T16:57:02.240Z,23.70
2023-06-03T16:58:35.315Z,23.60
2023-06-03T17:00:09.588Z,23.60
2023-06-03T17:01:42.445Z,23.60
2023-06-03T17:03:16.559Z,23.60
2023-06-03T17:04:49.595Z,23.60
2023-06-03T17:06:22.376Z,23.60
2023-06-03T17:07:55.198Z,23.60
2023-06-03T17:09:27.928Z,23.60
2023-06-03T17:11:00.731Z,23.60
2023-06-03T17:12:33.455Z,23.50
2023-06-03T17:14:06.764Z,23.50
2023-06-03T17:15:39.545Z,23.50
2023-06-03T17:17:12.369Z,23.40
2023-06-03T17:18:46.953Z,23.50
2023-06-03T17:20:19.819Z,23.50
2023-06-03T17:21:52.734Z,23.50
2023-06-03T17:23:25.536Z,23.40
2023-06-03T17:24:58.276Z,23.40
2023-06-03T17:26:31.075Z,23.40
2023-06-03T17:28:04.132Z,23.40
2023-06-03T17:29:36.889Z,23.40
2023-06-03T17:31:09.858Z,23.40
2023-06-03T17:32:45.579Z,23.30
2023-06-03T17:34:20.082Z,23.30
2023-06-03T17:35:52.911Z,23.30
2023-06-03T17:37:25.766Z,23.30
2023-06-03T17:38:58.536Z,23.30
2023-06-03T17:40:31.285Z,23.30
2023-06-03T17:42:04.214Z,23.20
2023-06-03T17:43:38.053Z,23.20
2023-06-03T17:45:11.536Z,23.20
2023-06-03T17:46:44.333Z,23.20
2023-06-03T17:48:17.072Z,23.20
2023-06-03T17:49:52.058Z,23.20
2023-06-03T17:51:24.862Z,23.20
2023-06-03T17:52:57.615Z,23.10
2023-06-03T17:54:30.438Z,23.10
2023-06-03T17:56:03.220Z,23.00
2023-06-03T17:57:45.361Z,23.00
2023-06-03T17:59:18.146Z,22.90
2023-06-03T18:00:51.523Z,22.90
2023-06-03T18:02:26.181Z,22.90
2023-06-03T18:03:59.018Z,22.80
2023-06-03T18:05:33.508Z,22.80
2023-06-03T18:07:06.804Z,22.80
2023-06-03T18:08:39.529Z,22.80
2023-06-03T18:10:14.153Z,22.70
2023-06-03T18:11:46.891Z,22.70
2023-06-03T18:13:19.620Z,22.60
2023-06-03T18:14:52.747Z,22.60
2023-06-03T18:16:25.596Z,22.50
2023-06-03T18:17:59.385Z,22.50
2023-06-03T18:19:33.139Z,22.40
2023-06-03T18:21:07.409Z,22.40
2023-06-03T18:22:40.179Z,22.30
2023-06-03T18:24:12.957Z,22.30
2023-06-03T18:25:46.585Z,22.20
2023-06-03T18:27:19.645Z,22.20
2023-06-03T18:28:52.376Z,22.10
2023-06-03T18:30:25.293Z,22.10
2023-06-03T18:31:58.090Z,22.10
2023-06-03T18:33:30.875Z,22.00
2023-06-03T18:35:03.617Z,22.00
2023-06-03T18:36:37.708Z,21.90
2023-06-03T18:38:10.442Z,21.90
2023-06-03T18:39:43.256Z,21.80
2023-06-03T18:41:16.219Z,21.80
2023-06-03T18:42:49.013Z,21.70
2023-06-03T18:44:21.772Z,21.70
2023-06-03T18:45:54.575Z,21.70
2023-06-03T18:47:26.474Z,21.60
2023-06-03T18:48:59.259Z,21.50
2023-06-03T18:50:32.025Z,21.50
2023-06-03T18:52:06.693Z,21.40
2023-06-03T18:53:39.464Z,21.40
2023-06-03T18:55:12.609Z,21.40
2023-06-03T18:56:45.530Z,21.30
2023-06-03T18:58:18.307Z,21.30
2023-06-03T18:59:51.951Z,21.30
2023-06-03T19:01:24.954Z,21.20
2023-06-03T19:02:57.890Z,21.10
2023-06-03T19:04:30.741Z,21.10
2023-06-03T19:06:04.431Z,21.10
2023-06-03T19:07:38.864Z,21.00
2023-06-03T19:09:12.829Z,21.00
2023-06-03T19:10:46.166Z,21.00
2023-06-03T19:12:18.956Z,20.90
2023-06-03T19:13:51.731Z,20.80
2023-06-03T19:15:24.499Z,20.80
2023-06-03T19:16:57.708Z,20.70
2023-06-03T19:18:30.433Z,20.60
2023-06-03T19:20:05.801Z,20.60
2023-06-03T19:21:39.786Z,20.50
2023-06-03T19:23:14.277Z,20.50
2023-06-03T19:24:47.132Z,20.40
2023-06-03T19:26:19.954Z,20.40
2023-06-03T19:27:52.717Z,20.30
2023-06-03T19:29:25.519Z,20.30
2023-06-03T19:30:58.682Z,20.20
2023-06-03T19:32:31.459Z,20.20
2023-06-03T19:34:05.252Z,20.10
2023-06-03T19:35:37.978Z,20.10
2023-06-03T19:37:11.035Z,20.00
2023-06-03T19:38:45.142Z,20.00
2023-06-03T19:40:18.091Z,20.00
2023-06-03T19:41:50.838Z,19.90
2023-06-03T19:43:23.625Z,19.90
2023-06-03T19:44:56.354Z,19.80
2023-06-03T19:46:32.718Z,19.80
2023-06-03T19:48:06.277Z,19.80
2023-06-03T19:49:39.112Z,19.70
2023-06-03T19:51:11.892Z,19.70
2023-06-03T19:52:55.164Z,19.70
2023-06-03T19:54:30.246Z,19.70
2023-06-03T19:56:03.100Z,19.60
2023-06-03T19:57:35.949Z,19.60
2023-06-03T19:59:08.701Z,19.60
2023-06-03T20:00:41.996Z,19.60
2023-06-03T20:02:15.091Z,19.50
2023-06-03T20:03:48.509Z,19.50
2023-06-03T20:05:21.516Z,19.50
2023-06-03T20:06:54.258Z,19.40
2023-06-03T20:08:27.010Z,19.40
2023-06-03T20:10:01.107Z,19.30
2023-06-03T20:11:34.760Z,19.30
2023-06-03T20:13:09.794Z,19.30
2023-06-03T20:14:50.696Z,19.20
2023-06-03T20:16:23.501Z,19.20